Time;durP1;ratioP1;P1;durP2;ratioP2;P2;SDS_P1;SDS_P2;PMS_P1;PMS_P2;Temp;Humidity;BMP_temperature;BMP_pressure;BME280_temperature;BME280_humidity;BME280_pressure;Samples;Min_cycle;Max_cycle;Signal;HPM_P1;HPM_P2
2024/01/25 00:28:53;;;;;;;20.90;4.97;;;8.60;52.40;;;;;;6104742;23;20923;-88
2024/01/25 00:31:20;;;;;;;15.70;4.23;;;8.60;99.90;;;;;;6153645;23;20389;-88
2024/01/25 00:33:59;;;;;;;11.80;4.13;;;8.50;93.20;;;;;;6154063;23;20412;-89
2024/01/25 00:36:29;;;;;;;10.40;4.60;;;8.40;9.10;;;;;;6137296;23;20398;-89
2024/01/25 00:38:59;;;;;;;17.70;3.17;;;8.50;60.80;;;;;;6132557;23;20415;-89
2024/01/25 00:41:28;;;;;;;17.20;4.87;;;8.50;25.00;;;;;;6131575;23;20413;-89
2024/01/25 05:03:20;;;;;;;;;;;;;;;;;;;;;
2024/01/25 05:11:58;;;;;;;12.18;4.20;;;7.90;7.70;;;;;;6130529;23;20211;-89
2024/01/25 05:14:40;;;;;;;17.33;7.43;;;7.90;1.00;;;;;;6133089;23;20168;-90
2024/01/25 05:17:47;;;;;;;12.70;5.77;;;7.90;12.40;;;;;;6132836;23;20165;-89
2024/01/25 05:20:42;;;;;;;18.45;5.30;;;7.90;1.00;;;;;;6130339;23;20523;-89
2024/01/25 05:23:20;;;;;;;16.20;4.13;;;7.90;99.90;;;;;;6107679;23;20197;-89
2024/01/25 05:26:02;;;;;;;15.30;4.10;;;7.90;99.90;;;;;;6132056;23;20411;-89
2024/01/25 05:31:43;;;;;;;13.67;4.27;;;8.00;99.90;;;;;;6127899;23;20424;-89
2024/01/25 05:37:32;;;;;;;13.87;5.43;;;7.90;1.00;;;;;;6105573;23;20221;-89
2024/01/25 05:40:45;;;;;;;10.80;3.50;;;7.80;1.00;;;;;;6133287;23;20417;-89
2024/01/25 05:46:58;;;;;;;16.80;4.43;;;7.90;1.00;;;;;;6056673;23;20475;-89
2024/01/25 06:18:05;;;;;;;18.20;4.20;;;7.90;9.20;;;;;;6046640;23;20488;-89
2024/01/25 06:38:32;;;;;;;12.20;3.40;;;7.80;91.80;;;;;;6094267;23;20189;-89
2024/01/25 11:25:23;;;;;;;;;;;;;;;;;;;;;
2024/01/25 11:28:20;;;;;;;12.47;3.70;;;8.40;1.00;;;;;;6172535;23;20407;-88
2024/01/25 11:34:20;;;;;;;10.93;3.43;;;8.50;1.00;;;;;;6079694;23;20434;-89
2024/01/25 11:39:30;;;;;;;17.13;4.20;;;8.50;1.00;;;;;;6210754;23;20392;-86
2024/01/25 11:41:57;;;;;;;7.27;3.50;;;8.50;1.00;;;;;;6212640;23;20388;-87
2024/01/25 11:44:25;;;;;;;17.57;4.60;;;8.70;1.00;;;;;;6209738;23;20447;-87
2024/01/25 11:46:54;;;;;;;14.60;4.10;;;8.60;1.00;;;;;;6201921;23;20403;-85
2024/01/25 11:49:23;;;;;;;9.40;3.53;;;8.70;1.00;;;;;;6201415;23;20382;-86
2024/01/25 11:51:50;;;;;;;18.70;4.57;;;8.70;1.00;;;;;;6201152;23;20413;-87
2024/01/25 11:54:17;;;;;;;18.67;4.13;;;8.70;1.00;;;;;;6203923;23;20446;-86
2024/01/25 11:56:44;;;;;;;13.10;5.00;;;8.70;1.00;;;;;;6202130;23;20386;-86
2024/01/25 11:59:12;;;;;;;14.10;4.70;;;8.70;1.00;;;;;;6203027;23;20433;-86
2024/01/25 12:01:41;;;;;;;9.30;3.20;;;8.50;1.00;;;;;;6202860;23;20413;-86
2024/01/25 12:04:08;;;;;;;11.37;4.27;;;8.70;1.00;;;;;;6208892;23;20414;-86
2024/01/25 12:06:35;;;;;;;9.20;3.90;;;8.70;1.00;;;;;;6209396;23;20460;-85
2024/01/25 12:09:10;;;;;;;8.50;3.30;;;8.70;1.00;;;;;;6197488;23;20442;-87
2024/01/25 12:11:37;;;;;;;11.37;5.67;;;8.70;1.00;;;;;;6196345;23;20403;-87
2024/01/25 12:14:04;;;;;;;8.30;3.00;;;8.70;1.00;;;;;;6194323;23;20404;-87
2024/01/25 12:16:31;;;;;;;12.63;4.30;;;8.70;1.00;;;;;;6205607;23;20399;-86
2024/01/25 12:18:59;;;;;;;15.50;4.60;;;8.60;1.00;;;;;;6212360;23;20423;-86
2024/01/25 12:21:26;;;;;;;11.40;3.50;;;8.70;1.00;;;;;;6213367;23;20386;-86
2024/01/25 12:23:53;;;;;;;7.63;3.90;;;8.80;1.00;;;;;;6197964;23;20967;-86
2024/01/25 12:26:20;;;;;;;10.17;3.53;;;8.70;1.00;;;;;;6207908;23;20434;-86
2024/01/25 12:28:49;;;;;;;11.50;4.27;;;8.60;1.00;;;;;;6204005;23;20427;-86
2024/01/25 12:31:17;;;;;;;16.13;4.67;;;8.60;1.00;;;;;;6201079;23;20469;-87
2024/01/25 12:33:44;;;;;;;7.00;3.87;;;8.50;1.00;;;;;;6199579;23;20423;-87
2024/01/25 12:36:12;;;;;;;12.83;3.90;;;8.60;1.00;;;;;;6202996;23;20415;-87
2024/01/25 12:38:39;;;;;;;9.63;3.43;;;8.60;1.00;;;;;;6195750;23;20410;-86
2024/01/25 12:41:07;;;;;;;16.77;4.00;;;8.60;1.00;;;;;;6193758;23;20434;-86
2024/01/25 12:43:34;;;;;;;12.93;5.47;;;8.40;1.00;;;;;;6193608;23;20533;-86
2024/01/25 12:46:03;;;;;;;11.40;3.33;;;8.50;1.00;;;;;;6198255;23;20399;-86
2024/01/25 12:48:30;;;;;;;16.57;4.00;;;8.40;1.00;;;;;;6191721;23;20486;-86
2024/01/25 12:51:17;;;;;;;21.60;3.97;;;8.50;1.00;;;;;;6192654;23;20458;-88
2024/01/25 12:53:46;;;;;;;16.50;4.90;;;8.60;1.00;;;;;;6192047;23;20393;-86
2024/01/25 12:56:13;;;;;;;11.13;4.40;;;8.70;1.00;;;;;;6192170;23;20439;-87
2024/01/25 12:58:40;;;;;;;12.97;4.83;;;8.70;1.00;;;;;;6205075;23;20431;-86
2024/01/25 13:01:07;;;;;;;9.00;3.03;;;8.80;1.00;;;;;;6204375;23;20407;-86
2024/01/25 13:03:34;;;;;;;12.47;4.70;;;8.70;1.00;;;;;;6191684;23;20446;-86
2024/01/25 13:06:05;;;;;;;11.97;4.23;;;8.70;1.00;;;;;;6190720;23;20738;-87
2024/01/25 13:08:32;;;;;;;18.27;3.63;;;8.70;1.00;;;;;;6190772;23;20921;-86
2024/01/25 13:11:00;;;;;;;16.30;5.27;;;8.70;1.00;;;;;;6194180;23;20385;-87
2024/01/25 13:13:27;;;;;;;15.03;3.47;;;8.70;1.00;;;;;;6190629;23;20784;-87
2024/01/25 13:15:54;;;;;;;14.07;4.90;;;8.80;1.00;;;;;;6190085;23;20396;-86
2024/01/25 13:18:21;;;;;;;12.73;3.80;;;8.70;1.00;;;;;;6191286;23;20425;-86
2024/01/25 13:20:47;;;;;;;4.03;2.43;;;8.70;1.00;;;;;;6191841;23;20414;-85
2024/01/25 13:23:14;;;;;;;13.17;3.10;;;8.70;1.00;;;;;;6191663;23;20411;-86
2024/01/25 13:25:41;;;;;;;11.37;3.47;;;8.80;1.00;;;;;;6197554;23;20876;-87
2024/01/25 13:28:09;;;;;;;8.10;3.47;;;8.80;1.00;;;;;;6206606;23;20427;-86
2024/01/25 13:30:36;;;;;;;11.60;4.67;;;8.90;1.00;;;;;;6206765;23;20407;-86
2024/01/25 13:33:04;;;;;;;11.50;3.70;;;8.90;1.00;;;;;;6205157;23;20402;-86
2024/01/25 13:35:33;;;;;;;7.90;3.80;;;8.80;1.00;;;;;;6213073;23;20396;-85
2024/01/25 13:38:01;;;;;;;23.27;4.50;;;8.90;1.00;;;;;;6213442;23;20430;-84
2024/01/25 13:40:29;;;;;;;11.30;3.33;;;8.90;1.00;;;;;;6214238;23;20392;-85
2024/01/25 13:42:56;;;;;;;12.40;4.00;;;8.80;1.00;;;;;;6213194;23;20467;-85
2024/01/25 13:45:24;;;;;;;14.97;5.27;;;8.80;1.00;;;;;;6212360;23;20450;-86
2024/01/25 13:47:51;;;;;;;12.60;3.77;;;8.80;1.00;;;;;;6206931;23;20434;-87
2024/01/25 13:50:18;;;;;;;9.43;3.83;;;8.80;1.00;;;;;;6208394;23;20434;-87
2024/01/25 13:52:45;;;;;;;15.37;4.60;;;8.80;1.00;;;;;;6195137;23;20389;-86
2024/01/25 13:55:12;;;;;;;10.10;4.20;;;8.70;1.00;;;;;;6201921;23;20418;-86
2024/01/25 13:57:39;;;;;;;10.67;3.87;;;8.70;1.00;;;;;;6211783;23;20430;-85
2024/01/25 14:00:07;;;;;;;11.70;3.57;;;8.60;1.00;;;;;;6212336;23;20399;-86
2024/01/25 14:02:36;;;;;;;11.63;5.60;;;8.70;1.00;;;;;;6201242;23;20411;-86
2024/01/25 14:05:03;;;;;;;11.83;4.77;;;8.70;1.00;;;;;;6197090;23;20423;-86
2024/01/25 14:07:29;;;;;;;7.37;3.67;;;8.60;1.00;;;;;;6208886;23;20418;-86
2024/01/25 14:09:56;;;;;;;14.00;3.60;;;8.60;1.00;;;;;;6208231;23;20840;-86
2024/01/25 14:12:23;;;;;;;14.67;3.87;;;8.60;1.00;;;;;;6203319;23;20430;-86
2024/01/25 14:14:50;;;;;;;10.37;4.50;;;8.60;1.00;;;;;;6202745;23;20827;-87
2024/01/25 14:17:17;;;;;;;6.23;3.20;;;8.70;1.00;;;;;;6200214;23;20451;-87
2024/01/25 14:19:45;;;;;;;8.20;3.90;;;8.70;1.00;;;;;;6196982;23;20442;-87
2024/01/25 14:22:12;;;;;;;7.53;2.63;;;8.60;1.00;;;;;;6205581;23;20386;-86
2024/01/25 14:24:39;;;;;;;5.20;3.63;;;8.60;1.00;;;;;;6198182;23;20450;-86
2024/01/25 14:27:06;;;;;;;11.23;3.33;;;8.70;1.00;;;;;;6196130;23;20465;-86
2024/01/25 14:29:33;;;;;;;12.93;3.93;;;8.60;1.00;;;;;;6195933;23;20442;-86
2024/01/25 14:32:00;;;;;;;15.03;5.23;;;8.60;1.00;;;;;;6194295;23;20411;-86
2024/01/25 14:34:27;;;;;;;15.77;4.50;;;8.50;1.00;;;;;;6193626;23;20406;-87
2024/01/25 14:36:55;;;;;;;11.83;4.37;;;8.60;1.00;;;;;;6193535;23;20887;-87
2024/01/25 14:39:22;;;;;;;15.13;4.60;;;8.60;1.00;;;;;;6196365;23;20901;-87
2024/01/25 14:41:49;;;;;;;11.37;4.07;;;8.50;1.00;;;;;;6193062;23;20434;-86
2024/01/25 14:44:16;;;;;;;11.47;3.23;;;8.40;1.00;;;;;;6194669;23;20439;-87
2024/01/25 14:46:44;;;;;;;7.93;3.93;;;8.40;1.00;;;;;;6193691;23;20981;-87
2024/01/25 14:49:12;;;;;;;10.83;3.50;;;8.40;1.00;;;;;;6193759;23;20438;-86
2024/01/25 14:51:38;;;;;;;4.83;3.03;;;8.40;1.00;;;;;;6201992;23;20410;-86
2024/01/25 14:54:07;;;;;;;10.07;4.67;;;8.40;1.00;;;;;;6205363;23;20405;-86
2024/01/25 14:56:33;;;;;;;13.77;3.87;;;8.40;1.00;;;;;;6196318;23;20427;-86
2024/01/25 14:59:00;;;;;;;9.70;4.00;;;8.40;1.00;;;;;;6194119;23;20398;-87
2024/01/25 15:01:30;;;;;;;8.77;2.67;;;8.40;1.00;;;;;;6193986;23;20913;-85
2024/01/25 15:03:57;;;;;;;14.17;3.00;;;8.30;1.00;;;;;;6208691;23;20411;-87
2024/01/25 15:06:24;;;;;;;11.50;3.27;;;8.30;1.00;;;;;;6199050;23;20403;-88
2024/01/25 15:08:51;;;;;;;21.70;5.27;;;8.30;1.00;;;;;;6195541;23;20438;-87
2024/01/25 15:11:19;;;;;;;9.07;3.37;;;8.20;1.00;;;;;;6198320;23;20431;-86
2024/01/25 15:13:48;;;;;;;13.47;3.70;;;8.20;1.00;;;;;;6193737;23;20437;-87
2024/01/25 15:16:15;;;;;;;10.37;4.20;;;8.20;1.00;;;;;;6201854;23;20383;-87
2024/01/25 15:18:42;;;;;;;8.37;3.50;;;8.20;1.00;;;;;;6200223;23;20434;-87
2024/01/25 15:21:09;;;;;;;9.30;3.40;;;8.20;1.00;;;;;;6196689;23;20428;-86
2024/01/25 15:23:36;;;;;;;16.13;3.50;;;8.10;1.00;;;;;;6197432;23;20399;-86
2024/01/25 15:26:05;;;;;;;9.13;3.17;;;8.10;1.00;;;;;;6194656;23;20418;-87
2024/01/25 15:28:34;;;;;;;14.97;4.10;;;8.00;1.00;;;;;;6201930;23;20425;-86
2024/01/25 15:31:01;;;;;;;13.60;4.00;;;8.00;1.00;;;;;;6207391;23;20551;-86
2024/01/25 15:33:28;;;;;;;10.67;3.13;;;8.10;1.00;;;;;;6208526;23;20393;-86
2024/01/25 15:35:55;;;;;;;10.77;3.13;;;8.10;1.00;;;;;;6206779;23;20400;-86
2024/01/25 15:38:22;;;;;;;13.90;3.27;;;8.20;1.00;;;;;;6195001;23;20499;-86
2024/01/25 15:40:50;;;;;;;5.43;3.20;;;8.20;1.00;;;;;;6193005;23;20410;-85
2024/01/25 15:43:17;;;;;;;5.90;3.10;;;8.10;1.00;;;;;;6193366;23;20477;-86
2024/01/25 15:45:45;;;;;;;6.97;3.27;;;8.10;1.00;;;;;;6193602;23;21043;-86
2024/01/25 15:48:12;;;;;;;14.23;3.30;;;8.10;1.00;;;;;;6204456;23;20430;-85
2024/01/25 15:50:39;;;;;;;7.30;4.00;;;8.10;1.00;;;;;;6200199;23;20385;-87
2024/01/25 15:53:06;;;;;;;14.47;3.80;;;8.10;1.00;;;;;;6195598;23;20386;-87
2024/01/25 15:55:33;;;;;;;8.43;4.30;;;8.10;1.00;;;;;;6197200;23;20486;-85
2024/01/25 15:58:00;;;;;;;14.63;5.77;;;8.10;1.00;;;;;;6198086;23;20427;-85
2024/01/25 16:00:27;;;;;;;14.00;5.27;;;8.00;1.00;;;;;;6196887;23;20374;-85
2024/01/25 16:02:56;;;;;;;11.93;3.90;;;8.10;1.00;;;;;;6195184;23;20378;-85
2024/01/25 16:05:23;;;;;;;10.07;3.70;;;8.10;1.00;;;;;;6203072;23;20406;-87
2024/01/25 16:07:50;;;;;;;14.10;3.20;;;8.10;1.00;;;;;;6204510;23;20438;-85
2024/01/25 16:10:18;;;;;;;9.30;3.90;;;8.10;1.00;;;;;;6200515;23;20403;-87
2024/01/25 16:12:44;;;;;;;18.60;4.03;;;8.10;99.90;;;;;;6199693;23;20379;-86
2024/01/25 16:15:11;;;;;;;15.57;4.90;;;8.20;99.90;;;;;;6197838;23;20403;-86
2024/01/25 16:17:38;;;;;;;12.33;4.13;;;8.20;81.20;;;;;;6203837;23;20411;-85
2024/01/25 16:20:08;;;;;;;14.63;3.87;;;8.20;99.90;;;;;;6202756;23;20392;-87
2024/01/25 16:22:36;;;;;;;16.73;4.50;;;8.10;27.20;;;;;;6197353;23;20398;-86
2024/01/25 16:25:03;;;;;;;14.00;3.83;;;8.00;90.50;;;;;;6193898;23;20410;-87
2024/01/25 16:27:30;;;;;;;17.80;5.13;;;8.10;99.90;;;;;;6196121;23;20756;-86
2024/01/25 16:29:57;;;;;;;21.03;4.20;;;8.10;99.90;;;;;;6202768;23;20427;-87
2024/01/25 16:32:24;;;;;;;14.30;4.20;;;8.00;12.10;;;;;;6214569;23;20377;-86
2024/01/25 16:34:51;;;;;;;9.47;3.90;;;7.90;16.90;;;;;;6214493;23;20387;-87
2024/01/25 16:37:19;;;;;;;12.20;4.37;;;7.90;38.60;;;;;;6214106;23;20402;-86
2024/01/25 16:39:46;;;;;;;12.10;4.70;;;8.00;99.90;;;;;;6214821;23;20379;-86
2024/01/25 16:42:13;;;;;;;9.13;3.17;;;8.00;99.90;;;;;;6214562;23;20359;-85
2024/01/25 16:44:40;;;;;;;6.10;3.00;;;8.00;99.90;;;;;;6214230;23;20446;-86
2024/01/25 16:47:07;;;;;;;12.53;3.67;;;8.00;99.90;;;;;;6213623;23;20395;-87
2024/01/25 16:49:34;;;;;;;13.60;4.77;;;8.00;99.90;;;;;;6208813;23;20409;-88
2024/01/25 16:52:02;;;;;;;12.77;4.60;;;8.00;99.90;;;;;;6202172;23;20367;-87
2024/01/25 16:54:30;;;;;;;11.00;4.03;;;8.00;99.90;;;;;;6200562;23;20461;-87
2024/01/25 16:56:57;;;;;;;16.13;4.53;;;8.00;99.90;;;;;;6198480;23;20402;-86
2024/01/25 16:59:24;;;;;;;14.63;3.50;;;8.00;99.90;;;;;;6196774;23;20384;-88
2024/01/25 17:01:51;;;;;;;28.27;4.30;;;8.10;99.90;;;;;;6199224;23;20441;-86
2024/01/25 17:04:18;;;;;;;11.50;3.50;;;7.90;99.90;;;;;;6209444;23;20385;-86
2024/01/25 17:06:45;;;;;;;13.47;4.23;;;7.90;99.90;;;;;;6212557;23;20404;-87
2024/01/25 17:09:14;;;;;;;17.03;4.73;;;7.80;99.90;;;;;;6198530;23;20435;-87
2024/01/25 17:11:42;;;;;;;13.10;4.70;;;7.80;99.90;;;;;;6204575;23;20450;-88
2024/01/25 17:14:09;;;;;;;14.07;4.63;;;7.80;99.90;;;;;;6204853;23;20399;-87
2024/01/25 17:16:37;;;;;;;18.20;5.70;;;7.90;99.90;;;;;;6202332;23;20401;-87
2024/01/25 17:19:04;;;;;;;13.03;6.50;;;7.90;99.90;;;;;;6209656;23;20419;-86
2024/01/25 17:21:31;;;;;;;10.33;4.53;;;7.90;99.90;;;;;;6209214;23;20399;-87
2024/01/25 17:23:58;;;;;;;10.20;4.43;;;7.90;1.00;;;;;;6210947;23;20450;-87
2024/01/25 17:26:25;;;;;;;13.93;3.83;;;7.90;99.90;;;;;;6198982;23;20417;-87
2024/01/25 17:28:55;;;;;;;12.23;4.17;;;7.80;99.90;;;;;;6194841;23;20412;-86
2024/01/25 17:31:22;;;;;;;19.30;4.20;;;7.90;99.90;;;;;;6196126;23;20390;-87
2024/01/25 17:34:18;;;;;;;10.17;4.03;;;7.90;99.90;;;;;;6197185;23;20391;-89
2024/01/25 17:40:17;;;;;;;10.33;3.97;;;7.90;1.00;;;;;;6197636;23;20369;-89
2024/01/25 17:42:44;;;;;;;13.27;3.70;;;7.80;99.90;;;;;;6197220;23;20423;-88
2024/01/25 17:45:37;;;;;;;14.80;5.20;;;7.80;99.90;;;;;;6199630;23;20526;-86
2024/01/25 17:48:04;;;;;;;13.87;4.00;;;7.70;99.90;;;;;;6195900;23;20431;-88
2024/01/25 17:50:31;;;;;;;9.10;4.03;;;7.80;1.00;;;;;;6209170;23;20430;-87
2024/01/25 17:52:58;;;;;;;13.90;6.00;;;7.70;99.90;;;;;;6212638;23;20368;-87
2024/01/25 17:55:25;;;;;;;17.13;6.00;;;7.60;99.90;;;;;;6209120;23;20411;-89
2024/01/25 18:03:04;;;;;;;11.13;3.87;;;7.70;1.00;;;;;;6163308;23;20489;-89
2024/01/25 18:05:31;;;;;;;9.13;4.70;;;7.60;99.90;;;;;;6170157;23;20442;-88
2024/01/25 18:07:58;;;;;;;13.95;4.50;;;7.80;1.00;;;;;;6165893;23;20414;-89
2024/01/25 18:10:26;;;;;;;16.33;4.83;;;7.70;1.00;;;;;;6164790;23;20172;-88
2024/01/25 18:12:53;;;;;;;10.13;4.90;;;7.70;1.00;;;;;;6172109;23;20448;-88
2024/01/25 18:15:23;;;;;;;12.87;5.10;;;7.60;1.00;;;;;;6181175;23;20383;-86
2024/01/25 18:17:49;;;;;;;10.60;4.47;;;7.60;1.00;;;;;;6182353;23;20399;-89
2024/01/25 18:20:18;;;;;;;12.93;6.37;;;7.70;1.00;;;;;;6173944;23;20404;-88
2024/01/25 18:22:45;;;;;;;11.50;5.55;;;7.70;1.00;;;;;;6169286;23;20378;-88
2024/01/25 18:25:12;;;;;;;13.10;4.90;;;7.70;1.00;;;;;;6168892;23;20219;-88
2024/01/25 18:27:39;;;;;;;17.63;5.30;;;7.70;1.00;;;;;;6168968;23;20431;-88
2024/01/25 18:30:07;;;;;;;15.97;5.20;;;7.70;6.80;;;;;;6168370;23;20411;-88
2024/01/25 18:32:34;;;;;;;11.93;4.27;;;7.70;1.00;;;;;;6167054;23;20382;-88
2024/01/25 18:35:01;;;;;;;15.53;5.47;;;7.70;98.60;;;;;;6165037;23;20881;-87
2024/01/25 18:37:29;;;;;;;8.97;4.80;;;7.70;1.00;;;;;;6169935;23;20461;-89
2024/01/25 18:39:56;;;;;;;17.00;4.53;;;7.60;99.90;;;;;;6177006;23;20419;-88
2024/01/25 18:42:23;;;;;;;16.53;4.07;;;7.50;1.00;;;;;;6170597;23;20382;-88
2024/01/25 18:44:50;;;;;;;12.32;5.32;;;7.50;1.00;;;;;;6169921;23;20421;-87
2024/01/25 18:47:17;;;;;;;18.83;6.10;;;7.40;1.00;;;;;;6180375;23;20203;-84
2024/01/25 18:49:43;;;;;;;19.17;6.03;;;7.40;1.00;;;;;;6177702;23;20196;-88
2024/01/25 18:52:11;;;;;;;15.00;5.03;;;7.40;99.70;;;;;;6169024;23;20470;-87
2024/01/25 18:54:40;;;;;;;18.67;6.03;;;7.40;1.00;;;;;;6170805;23;20235;-86
2024/01/25 18:57:08;;;;;;;8.97;3.40;;;7.50;99.90;;;;;;6167426;23;20418;-86
2024/01/25 18:59:35;;;;;;;11.03;5.00;;;7.50;99.90;;;;;;6174086;23;20423;-87
2024/01/25 19:02:03;;;;;;;21.07;6.53;;;7.50;99.90;;;;;;6167080;23;20415;-87
2024/01/25 19:04:30;;;;;;;19.50;7.80;;;7.50;99.90;;;;;;6167960;23;20427;-87
2024/01/25 19:06:58;;;;;;;20.40;7.23;;;7.40;1.00;;;;;;6170492;23;20418;-85
2024/01/25 19:09:25;;;;;;;15.63;6.20;;;7.40;1.00;;;;;;6164820;23;20412;-86
2024/01/25 19:11:54;;;;;;;12.57;6.67;;;7.40;1.00;;;;;;6164016;23;20741;-85
2024/01/25 19:14:21;;;;;;;16.33;6.70;;;7.40;49.00;;;;;;6164376;23;20473;-83
2024/01/25 19:16:49;;;;;;;15.73;6.00;;;7.30;1.00;;;;;;6165056;23;20483;-86
2024/01/25 19:19:16;;;;;;;15.10;7.97;;;7.30;1.00;;;;;;6165307;23;20419;-86
2024/01/25 19:21:43;;;;;;;10.47;5.60;;;7.20;1.00;;;;;;6164845;23;20404;-87
2024/01/25 19:24:15;;;;;;;12.13;4.47;;;7.40;1.00;;;;;;6164029;23;20412;-86
2024/01/25 19:26:42;;;;;;;11.10;4.60;;;7.40;99.90;;;;;;6164078;23;20489;-86
2024/01/25 19:29:10;;;;;;;10.70;4.90;;;7.30;1.30;;;;;;6164318;23;20421;-86
2024/01/25 19:31:37;;;;;;;15.60;5.20;;;7.20;1.00;;;;;;6167362;23;20407;-86
2024/01/25 19:34:04;;;;;;;11.43;4.70;;;7.10;1.00;;;;;;6164650;23;20748;-87
2024/01/25 19:36:34;;;;;;;6.70;4.87;;;7.20;60.30;;;;;;6164362;23;20495;-87
2024/01/25 19:39:01;;;;;;;12.00;4.97;;;7.20;1.00;;;;;;6165094;23;20413;-87
2024/01/25 19:41:28;;;;;;;12.37;5.50;;;7.20;99.90;;;;;;6166317;23;20412;-86
2024/01/25 19:43:58;;;;;;;12.30;5.30;;;7.20;9.50;;;;;;6167719;23;20412;-88
2024/01/25 19:46:26;;;;;;;15.10;6.23;;;7.20;99.90;;;;;;6169139;23;20440;-86
2024/01/25 19:48:53;;;;;;;14.33;6.23;;;7.20;99.90;;;;;;6172277;23;20424;-86
2024/01/25 19:51:19;;;;;;;11.55;4.95;;;7.30;99.90;;;;;;6169701;23;20408;-87
2024/01/25 19:53:47;;;;;;;16.27;5.87;;;7.20;99.90;;;;;;6169585;23;20228;-86
2024/01/25 19:56:15;;;;;;;13.60;4.27;;;7.20;99.90;;;;;;6169249;23;20379;-85
2024/01/25 19:58:43;;;;;;;15.37;5.10;;;7.20;99.90;;;;;;6170110;23;20977;-84
2024/01/25 20:01:12;;;;;;;17.27;5.40;;;7.20;99.90;;;;;;6173584;23;20399;-85
2024/01/25 20:03:41;;;;;;;13.97;5.70;;;7.10;99.90;;;;;;6177906;23;20388;-84
2024/01/25 20:06:14;;;;;;;14.93;5.83;;;7.10;1.00;;;;;;6175374;23;20418;-85
2024/01/25 20:08:41;;;;;;;9.70;4.50;;;7.10;99.90;;;;;;6170875;23;20419;-86
2024/01/25 20:11:08;;;;;;;8.60;4.70;;;7.20;1.00;;;;;;6170244;23;20446;-85
2024/01/25 20:13:36;;;;;;;19.40;5.23;;;7.20;99.90;;;;;;6170259;23;20231;-85
2024/01/25 20:16:03;;;;;;;18.80;6.07;;;7.20;1.00;;;;;;6170117;23;20414;-87
2024/01/25 20:18:29;;;;;;;13.30;6.03;;;7.10;1.00;;;;;;6176830;23;20394;-86
2024/01/25 20:20:58;;;;;;;16.80;6.27;;;7.00;1.00;;;;;;6179327;23;20404;-86
2024/01/25 20:23:24;;;;;;;11.77;5.00;;;7.10;1.00;;;;;;6180238;23;20396;-86
2024/01/25 20:25:51;;;;;;;15.40;5.80;;;7.00;1.00;;;;;;6175596;23;20203;-87
2024/01/25 20:28:19;;;;;;;15.83;5.60;;;6.90;99.90;;;;;;6175626;23;20712;-82
2024/01/25 20:30:46;;;;;;;14.52;4.68;;;6.80;99.90;;;;;;6184121;23;20400;-87
2024/01/25 20:33:13;;;;;;;16.10;5.13;;;6.80;1.00;;;;;;6182461;23;20180;-84
2024/01/25 20:35:40;;;;;;;15.38;5.35;;;6.90;1.00;;;;;;6183175;23;20176;-86
2024/01/25 20:38:08;;;;;;;9.03;4.30;;;6.90;1.00;;;;;;6184517;23;20192;-84
2024/01/25 20:40:35;;;;;;;18.38;5.32;;;6.80;1.00;;;;;;6183024;23;20366;-84
2024/01/25 20:43:02;;;;;;;15.32;4.72;;;6.80;1.00;;;;;;6184719;23;20168;-85
2024/01/25 20:45:29;;;;;;;13.00;5.20;;;6.80;1.00;;;;;;6182082;23;20220;-84
2024/01/25 20:47:57;;;;;;;18.47;5.83;;;6.70;1.00;;;;;;6179243;23;20439;-84
2024/01/25 20:50:24;;;;;;;12.53;5.80;;;6.80;90.60;;;;;;6174547;23;20465;-84
2024/01/25 20:52:51;;;;;;;12.00;5.20;;;6.70;1.00;;;;;;6172206;23;20928;-84
2024/01/25 20:55:19;;;;;;;11.80;5.63;;;6.80;99.90;;;;;;6166541;23;20400;-84
2024/01/25 20:57:57;;;;;;;15.27;5.72;;;6.70;1.00;;;;;;6165138;23;20250;-85
2024/01/25 21:00:24;;;;;;;16.48;5.80;;;6.70;99.90;;;;;;6164360;23;20192;-86
2024/01/25 21:02:52;;;;;;;15.80;8.40;;;6.60;1.00;;;;;;6165011;23;20192;-85
2024/01/25 21:05:20;;;;;;;12.63;4.70;;;6.50;99.90;;;;;;6166049;23;20404;-86
2024/01/25 21:07:50;;;;;;;14.50;7.32;;;6.40;99.90;;;;;;6172277;23;20220;-87
2024/01/25 21:10:22;;;;;;;10.88;5.00;;;6.40;99.90;;;;;;6169666;23;20165;-87
2024/01/25 21:12:49;;;;;;;20.05;5.43;;;6.30;99.90;;;;;;6169435;23;20165;-86
2024/01/25 21:15:19;;;;;;;14.40;4.70;;;6.30;99.90;;;;;;6174393;23;20165;-85
2024/01/25 21:17:46;;;;;;;15.50;5.82;;;6.20;99.90;;;;;;6175590;23;20196;-85
2024/01/25 21:20:13;;;;;;;15.30;5.03;;;6.10;99.90;;;;;;6167135;23;20180;-86
2024/01/25 21:22:40;;;;;;;14.57;5.32;;;6.10;1.00;;;;;;6166450;23;20216;-85
2024/01/25 21:25:08;;;;;;;13.15;5.68;;;6.00;1.00;;;;;;6170461;23;20192;-86
2024/01/25 21:27:36;;;;;;;23.33;5.43;;;6.00;1.00;;;;;;6161753;23;20208;-86
2024/01/25 21:30:04;;;;;;;14.05;6.22;;;5.90;39.20;;;;;;6163795;23;20259;-86
2024/01/25 21:32:31;;;;;;;14.38;5.00;;;5.90;99.90;;;;;;6164776;23;20236;-86
2024/01/25 21:34:57;;;;;;;20.25;5.80;;;5.80;99.90;;;;;;6164937;23;20181;-86
2024/01/25 21:37:25;;;;;;;13.52;4.05;;;5.80;99.90;;;;;;6165265;23;20192;-88
2024/01/25 21:39:52;;;;;;;10.30;4.55;;;5.80;99.90;;;;;;6168287;23;20231;-87
2024/01/25 21:42:19;;;;;;;14.80;5.40;;;5.80;99.90;;;;;;6168032;23;20180;-86
2024/01/25 21:44:47;;;;;;;16.80;5.95;;;5.80;1.00;;;;;;6166655;23;20185;-87
2024/01/25 21:47:14;;;;;;;13.02;4.70;;;5.80;99.90;;;;;;6171407;23;20208;-84
2024/01/25 21:49:41;;;;;;;19.95;6.50;;;5.80;99.90;;;;;;6170313;23;20180;-86
2024/01/25 21:52:08;;;;;;;18.45;7.20;;;5.70;1.00;;;;;;6166688;23;20204;-86
2024/01/25 21:54:35;;;;;;;22.90;6.30;;;5.70;1.00;;;;;;6169901;23;20187;-86
2024/01/25 21:57:02;;;;;;;12.18;5.68;;;5.70;1.00;;;;;;6166798;23;20635;-87
2024/01/25 21:59:29;;;;;;;15.13;7.03;;;5.70;1.00;;;;;;6165972;23;20180;-87
2024/01/25 22:01:57;;;;;;;12.95;5.70;;;5.60;1.00;;;;;;6171176;23;20215;-87
2024/01/25 22:04:25;;;;;;;10.65;4.45;;;5.50;1.00;;;;;;6168024;23;20259;-86
2024/01/25 22:06:54;;;;;;;21.63;6.95;;;5.50;1.00;;;;;;6165171;23;20252;-87
2024/01/25 22:09:21;;;;;;;14.77;6.32;;;5.50;68.40;;;;;;6170728;23;20181;-85
2024/01/25 22:11:48;;;;;;;19.27;4.82;;;5.50;3.10;;;;;;6180506;23;20172;-86
2024/01/25 22:14:15;;;;;;;13.05;5.85;;;5.40;93.80;;;;;;6183416;23;20160;-87
2024/01/25 22:16:42;;;;;;;16.77;6.15;;;5.40;99.90;;;;;;6172073;23;20560;-87
2024/01/25 22:19:10;;;;;;;14.43;5.32;;;5.50;99.90;;;;;;6171869;23;20200;-86
2024/01/25 22:21:37;;;;;;;14.15;5.38;;;5.30;99.90;;;;;;6173933;23;20229;-87
2024/01/25 22:24:04;;;;;;;17.13;5.32;;;5.30;99.90;;;;;;6184150;23;20160;-86
2024/01/25 22:26:31;;;;;;;19.17;5.97;;;5.30;99.90;;;;;;6181410;23;20207;-85
2024/01/25 22:28:58;;;;;;;17.25;6.63;;;5.30;99.90;;;;;;6171072;23;20196;-86
2024/01/25 22:31:25;;;;;;;9.90;6.05;;;5.20;99.90;;;;;;6171232;23;20212;-85
2024/01/25 22:33:52;;;;;;;13.65;4.72;;;5.20;99.90;;;;;;6172752;23;20207;-85
2024/01/25 22:36:20;;;;;;;15.77;5.88;;;5.10;1.00;;;;;;6169456;23;20180;-85
2024/01/25 22:38:47;;;;;;;15.80;6.57;;;5.10;1.00;;;;;;6166206;23;20211;-87
2024/01/25 22:41:14;;;;;;;16.83;6.10;;;5.10;1.00;;;;;;6173140;23;20180;-83
2024/01/25 22:43:40;;;;;;;12.50;5.97;;;5.00;1.00;;;;;;6170568;23;20215;-85
2024/01/25 22:46:07;;;;;;;13.23;5.55;;;5.00;1.00;;;;;;6170241;23;20191;-85
2024/01/25 22:48:37;;;;;;;22.75;9.15;;;5.00;1.00;;;;;;6167538;23;20224;-85
2024/01/25 22:51:04;;;;;;;18.58;6.07;;;5.00;1.00;;;;;;6167187;23;20214;-86
2024/01/25 22:53:32;;;;;;;16.67;6.15;;;4.90;1.00;;;;;;6168159;23;20187;-84
2024/01/25 22:55:59;;;;;;;20.88;6.38;;;4.90;1.00;;;;;;6168747;23;20639;-85
2024/01/25 22:58:26;;;;;;;23.08;6.03;;;4.90;17.00;;;;;;6170087;23;20193;-85
2024/01/25 23:00:53;;;;;;;27.70;7.00;;;4.90;80.60;;;;;;6183774;23;20164;-84
2024/01/25 23:03:19;;;;;;;20.25;6.20;;;4.90;99.90;;;;;;6179079;23;20216;-85
2024/01/25 23:05:46;;;;;;;22.55;6.20;;;5.00;67.50;;;;;;6171906;23;20176;-84
2024/01/25 23:08:13;;;;;;;15.70;5.65;;;4.90;1.00;;;;;;6178951;23;20212;-85
2024/01/25 23:10:42;;;;;;;26.88;7.10;;;5.00;99.90;;;;;;6178264;23;20204;-85
2024/01/25 23:13:08;;;;;;;25.75;7.90;;;5.00;29.20;;;;;;6173279;23;20751;-85
2024/01/25 23:15:36;;;;;;;19.48;5.70;;;4.90;1.00;;;;;;6165124;23;20176;-88
2024/01/25 23:18:02;;;;;;;10.80;6.15;;;4.90;99.90;;;;;;6167118;23;20203;-87
2024/01/25 23:20:29;;;;;;;18.48;6.60;;;4.90;78.30;;;;;;6167568;23;20187;-86
2024/01/25 23:22:56;;;;;;;14.38;6.22;;;4.90;99.90;;;;;;6174039;23;20181;-84
2024/01/25 23:25:23;;;;;;;15.35;5.72;;;4.90;99.90;;;;;;6172637;23;20177;-86
2024/01/25 23:27:51;;;;;;;14.82;6.65;;;4.80;99.90;;;;;;6174290;23;20233;-85
2024/01/25 23:30:18;;;;;;;16.08;6.35;;;4.80;96.20;;;;;;6179463;23;20558;-85
2024/01/25 23:32:45;;;;;;;15.43;5.95;;;4.90;99.90;;;;;;6178434;23;20203;-85
2024/01/25 23:35:12;;;;;;;13.75;6.63;;;4.80;99.90;;;;;;6179404;23;20187;-86
2024/01/25 23:37:40;;;;;;;15.20;6.60;;;4.80;49.30;;;;;;6170956;23;20276;-86
2024/01/25 23:40:10;;;;;;;13.70;6.22;;;4.80;99.90;;;;;;6165641;23;20176;-85
2024/01/25 23:42:37;;;;;;;19.25;7.40;;;4.70;99.90;;;;;;6172625;23;20176;-85
2024/01/25 23:45:06;;;;;;;21.27;6.60;;;4.60;99.90;;;;;;6175527;23;20167;-83
2024/01/25 23:47:33;;;;;;;13.73;6.50;;;4.60;99.90;;;;;;6168035;23;20200;-83
2024/01/25 23:50:13;;;;;;;21.17;5.57;;;4.60;99.90;;;;;;6163147;23;20252;-86
2024/01/25 23:52:56;;;;;;;21.17;6.22;;;4.60;99.90;;;;;;6163294;23;20603;-85